Terminal Aerodrome Forecast
Issued by NWS

Home | Current Version | Previous Version | Graphics & Text | Print | Product List | Glossary On
Versions: 1 2 3 4 5 6 7 8 9 10 11 12 13 14 15 16 17 18
415
FTUS43 KBIS 282107 AAA
TAFMOT
TAF AMD
KMOT 282107Z 2821/2918 00000KT P6SM OVC050
     FM290000 35005KT P6SM VCTS OVC040CB
     FM290300 27005KT P6SM OVC030
     FM290800 27007KT P6SM FEW070=

USA.gov is the U.S. government's official web portal to all federal, state and local government web resources and services.